createdAt,value
2023-04-18T00:00:03.362Z,1659.00
2023-04-18T00:01:03.301Z,1649.00
2023-04-18T00:02:03.318Z,1639.00
2023-04-18T00:03:04.594Z,1643.00
2023-04-18T00:04:03.404Z,1650.00
2023-04-18T00:05:03.217Z,1644.00
2023-04-18T00:06:03.111Z,1636.00
2023-04-18T00:07:03.073Z,1650.00
2023-04-18T00:08:03.039Z,1649.00
2023-04-18T00:09:03.011Z,1639.00
2023-04-18T00:10:02.972Z,1645.00
2023-04-18T00:11:02.928Z,1634.00
2023-04-18T00:12:02.886Z,1625.00
2023-04-18T00:13:02.853Z,1620.00
2023-04-18T00:14:02.843Z,1624.00
2023-04-18T00:15:02.840Z,1629.00
2023-04-18T00:16:02.761Z,1633.00
2023-04-18T00:17:02.902Z,1629.00
2023-04-18T00:18:02.719Z,1612.00
2023-04-18T00:19:02.651Z,1623.00
2023-04-18T00:20:02.629Z,1615.00
2023-04-18T00:21:02.585Z,1627.00
2023-04-18T00:22:02.575Z,1599.00
2023-04-18T00:23:02.545Z,1610.00
2023-04-18T00:24:02.549Z,1612.00
2023-04-18T00:25:02.530Z,1616.00
2023-04-18T00:26:02.486Z,1605.00
2023-04-18T00:27:02.472Z,1625.00
2023-04-18T00:28:02.447Z,1609.00
2023-04-18T00:29:02.435Z,1604.00
2023-04-18T00:30:02.438Z,1593.00
2023-04-18T00:31:02.489Z,1606.00
2023-04-18T00:32:02.401Z,1599.00
2023-04-18T00:33:02.400Z,1587.00
2023-04-18T00:34:02.372Z,1589.00
2023-04-18T00:35:02.360Z,1587.00
2023-04-18T00:36:02.341Z,1585.00
2023-04-18T00:37:02.334Z,1597.00
2023-04-18T00:38:02.303Z,1602.00
2023-04-18T00:39:02.345Z,1602.00
2023-04-18T00:40:02.284Z,1587.00
2023-04-18T00:41:02.284Z,1577.00
2023-04-18T00:42:02.261Z,1579.00
2023-04-18T00:43:02.264Z,1580.00
2023-04-18T00:44:02.228Z,1579.00
2023-04-18T00:45:02.207Z,1572.00
2023-04-18T00:46:02.268Z,1592.00
2023-04-18T00:47:02.270Z,1566.00
2023-04-18T00:48:02.218Z,1578.00
2023-04-18T00:49:02.159Z,1573.00
2023-04-18T00:50:02.141Z,1575.00
2023-04-18T00:51:02.118Z,1582.00
2023-04-18T00:52:02.138Z,1565.00
2023-04-18T00:53:02.057Z,1570.00
2023-04-18T00:54:02.040Z,1573.00
2023-04-18T00:55:02.038Z,1579.00
2023-04-18T00:56:02.042Z,1549.00
2023-04-18T00:57:01.992Z,1560.00
2023-04-18T00:58:01.996Z,1550.00
2023-04-18T00:59:01.981Z,1558.00
2023-04-18T01:00:01.951Z,1561.00
2023-04-18T01:01:01.930Z,1555.00
2023-04-18T01:02:02.124Z,1553.00
2023-04-18T01:03:02.084Z,1572.00
2023-04-18T01:04:02.057Z,1557.00
2023-04-18T01:05:01.868Z,1554.00
2023-04-18T01:06:01.836Z,1552.00
2023-04-18T01:07:01.811Z,1551.00
2023-04-18T01:08:01.804Z,1566.00
2023-04-18T01:09:01.777Z,1545.00
2023-04-18T01:10:01.810Z,1538.00
2023-04-18T01:11:01.769Z,1545.00
2023-04-18T01:12:01.742Z,1546.00
2023-04-18T01:13:01.673Z,1546.00
2023-04-18T01:14:01.707Z,1546.00
2023-04-18T01:15:01.651Z,1549.00
2023-04-18T01:16:01.619Z,1533.00
2023-04-18T01:17:01.509Z,1541.00
2023-04-18T01:18:01.546Z,1545.00
2023-04-18T01:19:01.421Z,1529.00
2023-04-18T01:20:01.384Z,1526.00
2023-04-18T01:21:01.342Z,1531.00
2023-04-18T01:22:01.293Z,1520.00
2023-04-18T01:23:01.246Z,1536.00
2023-04-18T01:24:01.219Z,1542.00
2023-04-18T01:25:01.157Z,1516.00
2023-04-18T01:26:01.138Z,1527.00
2023-04-18T01:27:01.067Z,1526.00
2023-04-18T01:28:01.022Z,1535.00
2023-04-18T01:29:00.985Z,1516.00
2023-04-18T01:30:00.940Z,1519.00
2023-04-18T01:31:00.937Z,1521.00
2023-04-18T01:32:00.858Z,1525.00
2023-04-18T01:33:00.920Z,1515.00
2023-04-18T01:34:00.814Z,1520.00
2023-04-18T01:35:00.816Z,1514.00
2023-04-18T01:36:00.816Z,1514.00
2023-04-18T01:37:00.811Z,1519.00
2023-04-18T01:38:00.782Z,1513.00
2023-04-18T01:39:00.784Z,1517.00
2023-04-18T01:40:00.773Z,1513.00
2023-04-18T01:41:00.736Z,1498.00
2023-04-18T01:42:00.726Z,1501.00
2023-04-18T01:43:00.746Z,1503.00
2023-04-18T01:44:00.671Z,1516.00
2023-04-18T01:45:00.652Z,1509.00
2023-04-18T01:46:00.629Z,1504.00
2023-04-18T01:47:00.611Z,1497.00
2023-04-18T01:48:00.650Z,1514.00
2023-04-18T01:49:00.530Z,1495.00
2023-04-18T01:50:00.532Z,1495.00
2023-04-18T01:51:00.491Z,1488.00
2023-04-18T01:52:00.493Z,1504.00
2023-04-18T01:53:00.454Z,1492.00
2023-04-18T01:54:00.439Z,1482.00
2023-04-18T01:55:00.431Z,1500.00
2023-04-18T01:56:00.416Z,1486.00
2023-04-18T01:57:00.384Z,1500.00
2023-04-18T01:58:00.355Z,1486.00
2023-04-18T01:59:00.351Z,1483.00
2023-04-18T02:00:00.302Z,1483.00
2023-04-18T02:01:00.310Z,1486.00
2023-04-18T02:02:00.273Z,1484.00
2023-04-18T02:03:00.344Z,1486.00
2023-04-18T02:04:00.272Z,1487.00
2023-04-18T02:05:00.126Z,1471.00
2023-04-18T02:06:00.077Z,1487.00
2023-04-18T02:07:00.046Z,1479.00
2023-04-18T02:08:00.017Z,1476.00
2023-04-18T02:08:59.955Z,1472.00
2023-04-18T02:09:59.911Z,1483.00
2023-04-18T02:10:59.871Z,1473.00
2023-04-18T02:11:59.828Z,1472.00
2023-04-18T02:12:59.805Z,1476.00
2023-04-18T02:13:59.785Z,1479.00
2023-04-18T02:14:59.733Z,1469.00
2023-04-18T02:15:59.771Z,1467.00
2023-04-18T02:16:59.635Z,1462.00
2023-04-18T02:17:59.630Z,1475.00
2023-04-18T02:18:59.574Z,1460.00
2023-04-18T02:19:59.527Z,1444.00
2023-04-18T02:20:59.508Z,1461.00
2023-04-18T02:21:59.464Z,1462.00
2023-04-18T02:22:59.421Z,1454.00
2023-04-18T02:23:59.372Z,1446.00
2023-04-18T02:24:59.333Z,1452.00
2023-04-18T02:25:59.304Z,1453.00
2023-04-18T02:26:59.253Z,1455.00
2023-04-18T02:27:59.223Z,1458.00
2023-04-18T02:28:59.204Z,1440.00
2023-04-18T02:29:59.197Z,1438.00
2023-04-18T02:30:59.191Z,1457.00
2023-04-18T02:31:59.199Z,1436.00
2023-04-18T02:32:59.236Z,1437.00
2023-04-18T02:33:59.171Z,1440.00
2023-04-18T02:34:59.134Z,1434.00
2023-04-18T02:35:59.150Z,1439.00
2023-04-18T02:36:59.117Z,1429.00
2023-04-18T02:37:59.074Z,1434.00
2023-04-18T02:38:59.073Z,1446.00
2023-04-18T02:39:59.054Z,1426.00
2023-04-18T02:40:59.027Z,1432.00
2023-04-18T02:41:59.045Z,1422.00
2023-04-18T02:42:59.007Z,1420.00
2023-04-18T02:43:58.958Z,1409.00
2023-04-18T02:44:58.952Z,1411.00
2023-04-18T02:45:58.941Z,1382.00
2023-04-18T02:46:58.832Z,1349.00
2023-04-18T02:47:58.809Z,1248.00
2023-04-18T02:48:58.761Z,1175.00
2023-04-18T02:49:58.716Z,1102.00
2023-04-18T02:50:58.714Z,1064.00
2023-04-18T02:51:58.685Z,1004.00
2023-04-18T02:52:58.634Z,980.00
2023-04-18T02:53:58.628Z,927.00
2023-04-18T02:54:58.610Z,893.00
2023-04-18T02:55:58.578Z,850.00
2023-04-18T02:56:58.574Z,819.00
2023-04-18T02:57:58.560Z,802.00
2023-04-18T02:58:58.545Z,774.00
2023-04-18T02:59:58.507Z,739.00
2023-04-18T03:00:58.524Z,729.00
2023-04-18T03:01:58.495Z,705.00
2023-04-18T03:02:58.521Z,675.00
2023-04-18T03:03:58.452Z,654.00
2023-04-18T03:04:58.461Z,645.00
2023-04-18T03:05:58.431Z,634.00
2023-04-18T03:06:58.396Z,625.00
2023-04-18T03:07:58.381Z,616.00
2023-04-18T03:08:58.379Z,606.00
2023-04-18T03:09:58.362Z,596.00
2023-04-18T03:10:58.353Z,590.00
2023-04-18T03:11:58.350Z,581.00
2023-04-18T03:12:58.316Z,575.00
2023-04-18T03:13:58.317Z,570.00
2023-04-18T03:14:58.297Z,561.00
2023-04-18T03:15:58.317Z,553.00
2023-04-18T03:16:58.280Z,548.00
2023-04-18T03:17:58.335Z,541.00
2023-04-18T03:18:58.338Z,539.00
2023-04-18T03:19:58.354Z,528.00
2023-04-18T03:20:58.384Z,525.00
2023-04-18T03:21:58.424Z,516.00
2023-04-18T03:22:58.446Z,509.00
2023-04-18T03:23:58.473Z,500.00
2023-04-18T03:24:58.495Z,500.00
2023-04-18T03:25:58.550Z,500.00
2023-04-18T03:26:58.574Z,502.00
2023-04-18T03:27:58.614Z,500.00
2023-04-18T03:28:58.663Z,500.00
2023-04-18T03:29:58.686Z,500.00
2023-04-18T03:30:58.787Z,501.00
2023-04-18T03:31:58.799Z,500.00
2023-04-18T03:32:58.983Z,502.00
2023-04-18T03:33:58.881Z,501.00
2023-04-18T03:34:58.918Z,501.00
2023-04-18T03:35:58.935Z,502.00
2023-04-18T03:36:58.996Z,500.00
2023-04-18T03:37:59.021Z,500.00
2023-04-18T03:38:59.060Z,500.00
2023-04-18T03:39:59.096Z,501.00
2023-04-18T03:40:59.161Z,505.00
2023-04-18T03:41:59.230Z,500.00
2023-04-18T03:42:59.256Z,500.00
2023-04-18T03:43:59.316Z,500.00
2023-04-18T03:44:59.351Z,500.00
2023-04-18T03:45:59.486Z,500.00
2023-04-18T03:46:59.477Z,501.00
2023-04-18T03:47:59.547Z,502.00
2023-04-18T03:48:59.540Z,500.00
2023-04-18T03:49:59.601Z,501.00
2023-04-18T03:50:59.649Z,503.00
2023-04-18T03:51:59.695Z,501.00
2023-04-18T03:52:59.762Z,500.00
2023-04-18T03:53:59.768Z,501.00
2023-04-18T03:54:59.799Z,502.00
2023-04-18T03:55:59.821Z,502.00
2023-04-18T03:56:59.780Z,503.00
2023-04-18T03:57:59.759Z,501.00
2023-04-18T03:58:59.742Z,497.00
2023-04-18T03:59:59.724Z,495.00
2023-04-18T04:00:59.720Z,501.00
2023-04-18T04:01:59.862Z,502.00
2023-04-18T04:02:59.914Z,502.00
2023-04-18T04:03:59.811Z,501.00
2023-04-18T04:04:59.739Z,499.00
2023-04-18T04:05:59.664Z,494.00
2023-04-18T04:06:59.661Z,491.00
2023-04-18T04:07:59.647Z,482.00
2023-04-18T04:08:59.628Z,500.00
2023-04-18T04:09:59.626Z,507.00
2023-04-18T04:10:59.614Z,501.00
2023-04-18T04:11:59.603Z,500.00
2023-04-18T04:12:59.643Z,503.00
2023-04-18T04:13:59.621Z,503.00
2023-04-18T04:14:59.662Z,504.00
2023-04-18T04:15:59.654Z,504.00
2023-04-18T04:16:59.637Z,499.00
2023-04-18T04:17:59.588Z,502.00
2023-04-18T04:18:59.561Z,506.00
2023-04-18T04:19:59.553Z,506.00
2023-04-18T04:20:59.538Z,509.00
2023-04-18T04:21:59.532Z,504.00
2023-04-18T04:22:59.526Z,504.00
2023-04-18T04:23:59.581Z,501.00
2023-04-18T04:24:59.623Z,510.00
2023-04-18T04:25:59.670Z,507.00
2023-04-18T04:26:59.741Z,508.00
2023-04-18T04:27:59.766Z,509.00
2023-04-18T04:28:59.808Z,509.00
2023-04-18T04:29:59.850Z,506.00
2023-04-18T04:30:59.921Z,504.00
2023-04-18T04:32:00.010Z,506.00
2023-04-18T04:33:00.037Z,509.00
2023-04-18T04:34:00.081Z,506.00
2023-04-18T04:35:00.052Z,507.00
2023-04-18T04:36:00.038Z,508.00
2023-04-18T04:37:00.023Z,512.00
2023-04-18T04:38:00.036Z,518.00
2023-04-18T04:39:00.010Z,521.00
2023-04-18T04:39:59.997Z,525.00
2023-04-18T04:41:00.005Z,525.00
2023-04-18T04:41:59.972Z,534.00
2023-04-18T04:42:59.969Z,533.00
2023-04-18T04:44:00.006Z,532.00
2023-04-18T04:45:00.128Z,541.00
2023-04-18T04:46:00.204Z,544.00
2023-04-18T04:47:00.178Z,543.00
2023-04-18T04:48:00.284Z,550.00
2023-04-18T04:49:00.292Z,553.00
2023-04-18T04:50:00.355Z,564.00
2023-04-18T04:51:00.413Z,567.00
2023-04-18T04:52:01.984Z,569.00
2023-04-18T04:53:00.543Z,570.00
2023-04-18T04:54:00.587Z,565.00
2023-04-18T04:55:00.629Z,568.00
2023-04-18T04:56:00.681Z,565.00
2023-04-18T04:57:00.746Z,567.00
2023-04-18T04:58:00.805Z,569.00
2023-04-18T04:59:00.863Z,565.00
2023-04-18T05:00:00.955Z,562.00
2023-04-18T05:01:01.017Z,563.00
2023-04-18T05:02:01.074Z,564.00
2023-04-18T05:03:01.444Z,561.00
2023-04-18T05:04:01.277Z,559.00
2023-04-18T05:05:01.221Z,559.00
2023-04-18T05:06:01.273Z,554.00
2023-04-18T05:07:01.333Z,556.00
2023-04-18T05:08:01.399Z,547.00
2023-04-18T05:09:01.430Z,548.00
2023-04-18T05:10:01.503Z,547.00
2023-04-18T05:11:01.583Z,546.00
2023-04-18T05:12:01.630Z,551.00
2023-04-18T05:13:01.682Z,549.00
2023-04-18T05:14:01.734Z,552.00
2023-04-18T05:15:01.849Z,554.00
2023-04-18T05:16:01.922Z,547.00
2023-04-18T05:17:02.095Z,551.00
2023-04-18T05:18:02.015Z,552.00
2023-04-18T05:19:02.065Z,551.00
2023-04-18T05:20:02.132Z,547.00
2023-04-18T05:21:02.159Z,547.00
2023-04-18T05:22:02.238Z,540.00
2023-04-18T05:23:02.249Z,532.00
2023-04-18T05:24:02.248Z,532.00
2023-04-18T05:25:02.274Z,523.00
2023-04-18T05:26:02.219Z,522.00
2023-04-18T05:27:02.200Z,506.00
2023-04-18T05:28:02.210Z,499.00
2023-04-18T05:29:02.199Z,497.00
2023-04-18T05:30:02.188Z,508.00
2023-04-18T05:31:02.238Z,525.00
2023-04-18T05:32:02.167Z,549.00
2023-04-18T05:33:02.231Z,581.00
2023-04-18T05:34:02.129Z,618.00
2023-04-18T05:35:02.185Z,671.00
2023-04-18T05:36:02.094Z,743.00
2023-04-18T05:37:02.138Z,774.00
2023-04-18T05:38:02.212Z,767.00
2023-04-18T05:39:02.207Z,692.00
2023-04-18T05:40:02.238Z,655.00
2023-04-18T05:41:02.234Z,637.00
2023-04-18T05:42:02.685Z,626.00
2023-04-18T05:43:02.263Z,610.00
2023-04-18T05:44:05.283Z,656.00
2023-04-18T05:45:02.160Z,752.00
2023-04-18T05:46:02.163Z,825.00
2023-04-18T05:47:02.122Z,917.00
2023-04-18T05:48:02.197Z,958.00
2023-04-18T05:49:02.071Z,1029.00
2023-04-18T05:50:02.053Z,1069.00
2023-04-18T05:51:02.033Z,1138.00
2023-04-18T05:52:01.986Z,1189.00
2023-04-18T05:53:01.934Z,1223.00
2023-04-18T05:54:01.884Z,1225.00
2023-04-18T05:55:01.834Z,1240.00
2023-04-18T05:56:01.777Z,1276.00
2023-04-18T05:57:03.875Z,1356.00
2023-04-18T05:58:01.971Z,1487.00
2023-04-18T05:59:01.992Z,1593.00
2023-04-18T06:00:02.004Z,1664.00
2023-04-18T06:01:01.952Z,1736.00
2023-04-18T06:02:02.029Z,1767.00
2023-04-18T06:03:02.146Z,1770.00
2023-04-18T06:04:02.078Z,1808.00
2023-04-18T06:05:02.113Z,1843.00
2023-04-18T06:06:01.968Z,1869.00
2023-04-18T06:07:01.883Z,1870.00
2023-04-18T06:08:01.782Z,1874.00
2023-04-18T06:09:01.714Z,1891.00
2023-04-18T06:10:01.703Z,1934.00
2023-04-18T06:11:01.726Z,1989.00
2023-04-18T06:12:01.667Z,1874.00
2023-04-18T06:13:01.946Z,1891.00
2023-04-18T06:14:01.486Z,1935.00
2023-04-18T06:15:01.510Z,1968.00
2023-04-18T06:16:01.426Z,2065.00
2023-04-18T06:17:01.360Z,2126.00
2023-04-18T06:18:01.405Z,2136.00
2023-04-18T06:19:01.508Z,2153.00
2023-04-18T06:20:01.232Z,2186.00
2023-04-18T06:21:01.195Z,2170.00
2023-04-18T06:22:01.120Z,2181.00
2023-04-18T06:23:01.115Z,2191.00
2023-04-18T06:24:01.014Z,2210.00
2023-04-18T06:25:00.972Z,2185.00
2023-04-18T06:26:00.918Z,2145.00
2023-04-18T06:27:00.879Z,2027.00
2023-04-18T06:28:00.951Z,1950.00
2023-04-18T06:29:00.794Z,1835.00
2023-04-18T06:30:00.728Z,1764.00
2023-04-18T06:31:00.774Z,1678.00
2023-04-18T06:32:00.807Z,1638.00
2023-04-18T06:33:00.682Z,1579.00
2023-04-18T06:34:00.659Z,1589.00
2023-04-18T06:35:00.543Z,1559.00
2023-04-18T06:36:00.492Z,1545.00
2023-04-18T06:37:00.448Z,1494.00
2023-04-18T06:38:00.401Z,1450.00
2023-04-18T06:39:00.538Z,1453.00
2023-04-18T06:40:00.339Z,1435.00
2023-04-18T06:41:00.343Z,1382.00
2023-04-18T06:42:00.279Z,1406.00
2023-04-18T06:43:00.231Z,1429.00
2023-04-18T06:44:04.099Z,1379.00
2023-04-18T06:45:00.172Z,1380.00
2023-04-18T06:46:00.177Z,1358.00
2023-04-18T06:47:00.092Z,1341.00
2023-04-18T06:48:00.134Z,1302.00
2023-04-18T06:49:00.042Z,1271.00
2023-04-18T06:50:00.060Z,1233.00
2023-04-18T06:50:59.975Z,1181.00
2023-04-18T06:51:59.936Z,1169.00
2023-04-18T06:52:59.875Z,1350.00
2023-04-18T06:53:59.859Z,1258.00
2023-04-18T06:54:59.915Z,1150.00
2023-04-18T06:55:59.774Z,1059.00
2023-04-18T06:56:59.759Z,999.00
2023-04-18T06:57:59.713Z,991.00
2023-04-18T06:58:59.669Z,935.00
2023-04-18T06:59:59.622Z,896.00
2023-04-18T07:00:59.640Z,847.00
2023-04-18T07:01:59.573Z,820.00
2023-04-18T07:02:59.672Z,754.00
2023-04-18T07:03:59.551Z,723.00
2023-04-18T07:04:59.468Z,682.00
2023-04-18T07:05:59.512Z,651.00
2023-04-18T07:06:59.526Z,634.00
2023-04-18T07:07:59.599Z,601.00
2023-04-18T07:08:59.618Z,586.00
2023-04-18T07:09:59.662Z,573.00
2023-04-18T07:10:59.735Z,554.00
2023-04-18T07:11:59.732Z,556.00
2023-04-18T07:12:59.806Z,542.00
2023-04-18T07:13:59.780Z,562.00
2023-04-18T07:14:59.794Z,565.00
2023-04-18T07:15:59.800Z,566.00
2023-04-18T07:16:59.810Z,577.00
2023-04-18T07:17:59.834Z,586.00
2023-04-18T07:18:59.846Z,584.00
2023-04-18T07:19:59.753Z,594.00
2023-04-18T07:20:59.755Z,598.00
2023-04-18T07:21:59.758Z,594.00
2023-04-18T07:22:59.729Z,593.00
2023-04-18T07:23:59.732Z,599.00
2023-04-18T07:24:59.764Z,597.00
2023-04-18T07:25:59.755Z,608.00
2023-04-18T07:26:59.660Z,606.00
2023-04-18T07:27:59.613Z,608.00
2023-04-18T07:28:59.584Z,609.00
2023-04-18T07:29:59.544Z,611.00
2023-04-18T07:30:59.539Z,611.00
2023-04-18T07:31:59.448Z,614.00
2023-04-18T07:32:59.447Z,628.00
2023-04-18T07:33:59.379Z,639.00
2023-04-18T07:34:59.357Z,629.00
2023-04-18T07:35:59.290Z,623.00
2023-04-18T07:36:59.241Z,617.00
2023-04-18T07:37:59.210Z,633.00
2023-04-18T07:38:59.277Z,658.00
2023-04-18T07:39:59.139Z,703.00
2023-04-18T07:40:59.220Z,793.00
2023-04-18T07:41:59.163Z,898.00
2023-04-18T07:42:59.007Z,982.00
2023-04-18T07:43:59.015Z,1031.00
2023-04-18T07:44:58.996Z,1083.00
2023-04-18T07:45:58.924Z,1110.00
2023-04-18T07:46:58.852Z,1165.00
2023-04-18T07:47:58.987Z,1192.00
2023-04-18T07:48:58.823Z,1242.00
2023-04-18T07:49:58.761Z,1262.00
2023-04-18T07:50:58.742Z,1273.00
2023-04-18T07:51:58.732Z,1305.00
2023-04-18T07:52:58.665Z,1329.00
2023-04-18T07:53:58.679Z,1337.00
2023-04-18T07:54:58.644Z,1369.00
2023-04-18T07:55:58.612Z,1381.00
2023-04-18T07:56:58.560Z,1387.00
2023-04-18T07:57:58.571Z,1384.00
2023-04-18T07:58:58.733Z,1413.00
2023-04-18T07:59:58.480Z,1432.00
2023-04-18T08:00:58.441Z,1455.00
2023-04-18T08:01:58.392Z,1457.00
2023-04-18T08:02:58.479Z,1451.00
2023-04-18T08:03:58.412Z,1460.00
2023-04-18T08:04:58.507Z,1471.00
2023-04-18T08:05:58.263Z,1472.00
2023-04-18T08:06:58.172Z,1474.00
2023-04-18T08:07:58.155Z,1480.00
2023-04-18T08:08:58.123Z,1490.00
2023-04-18T08:09:58.082Z,1495.00
2023-04-18T08:10:57.987Z,1411.00
2023-04-18T08:11:57.933Z,1258.00
2023-04-18T08:12:57.874Z,1107.00
2023-04-18T08:13:57.833Z,979.00
2023-04-18T08:14:57.835Z,896.00
2023-04-18T08:15:57.812Z,802.00
2023-04-18T08:16:57.703Z,735.00
2023-04-18T08:17:57.679Z,678.00
2023-04-18T08:18:57.692Z,645.00
2023-04-18T08:19:57.585Z,627.00
2023-04-18T08:20:57.558Z,605.00
2023-04-18T08:21:57.549Z,587.00
2023-04-18T08:23:06.773Z,567.00
2023-04-18T08:23:58.520Z,546.00
2023-04-18T08:25:04.204Z,520.00
2023-04-18T08:25:58.472Z,501.00
2023-04-18T08:26:57.389Z,479.00
2023-04-18T08:27:57.356Z,460.00
2023-04-18T08:28:57.352Z,436.00
2023-04-18T08:29:57.311Z,418.00
2023-04-18T08:30:57.460Z,453.00
2023-04-18T08:31:57.290Z,505.00
2023-04-18T08:32:57.238Z,527.00
2023-04-18T08:33:57.252Z,554.00
2023-04-18T08:34:57.186Z,576.00
2023-04-18T08:35:57.097Z,599.00
2023-04-18T08:36:57.085Z,634.00
2023-04-18T08:37:57.092Z,655.00
2023-04-18T08:38:57.084Z,661.00
2023-04-18T08:39:57.038Z,722.00
2023-04-18T08:40:57.010Z,776.00
2023-04-18T08:41:56.969Z,824.00
2023-04-18T08:42:56.935Z,882.00
2023-04-18T08:43:57.190Z,883.00
2023-04-18T08:44:56.830Z,890.00
2023-04-18T08:45:56.801Z,915.00
2023-04-18T08:46:56.728Z,945.00
2023-04-18T08:47:56.794Z,1018.00
2023-04-18T08:48:56.603Z,975.00
2023-04-18T08:49:56.551Z,977.00
2023-04-18T08:50:56.516Z,985.00
2023-04-18T08:51:56.452Z,994.00
2023-04-18T08:52:56.388Z,1040.00
2023-04-18T08:53:56.383Z,1135.00
2023-04-18T08:54:56.321Z,1185.00
2023-04-18T08:55:56.285Z,1209.00
2023-04-18T08:56:56.183Z,1235.00
2023-04-18T08:57:56.137Z,1267.00
2023-04-18T08:58:56.097Z,1298.00
2023-04-18T08:59:56.048Z,1319.00
2023-04-18T09:00:56.071Z,1348.00
2023-04-18T09:01:56.002Z,1350.00
2023-04-18T09:02:56.183Z,1376.00
2023-04-18T09:03:55.922Z,1394.00
2023-04-18T09:04:55.819Z,1409.00
2023-04-18T09:05:55.753Z,1433.00
2023-04-18T09:06:55.689Z,1430.00
2023-04-18T09:07:55.632Z,1437.00
2023-04-18T09:08:55.585Z,1465.00
2023-04-18T09:09:55.540Z,1488.00
2023-04-18T09:10:55.474Z,1521.00
2023-04-18T09:11:55.413Z,1524.00
2023-04-18T09:12:55.369Z,1548.00
2023-04-18T09:13:55.309Z,1563.00
2023-04-18T09:14:55.275Z,1565.00
2023-04-18T09:15:55.224Z,1579.00
2023-04-18T09:16:55.197Z,1576.00
2023-04-18T09:17:55.158Z,1589.00
2023-04-18T09:18:55.079Z,1567.00
2023-04-18T09:19:54.999Z,1581.00
2023-04-18T09:20:54.958Z,1581.00
2023-04-18T09:21:54.912Z,1564.00
2023-04-18T09:22:54.848Z,1553.00
2023-04-18T09:23:54.832Z,1539.00
2023-04-18T09:24:54.749Z,1533.00
2023-04-18T09:25:54.736Z,1535.00
2023-04-18T09:26:54.643Z,1536.00
2023-04-18T09:27:54.590Z,1520.00
2023-04-18T09:28:54.545Z,1528.00
2023-04-18T09:29:55.260Z,1524.00
2023-04-18T09:30:54.511Z,1539.00
2023-04-18T09:31:54.467Z,1567.00
2023-04-18T09:32:54.377Z,1583.00
2023-04-18T09:33:54.425Z,1547.00
2023-04-18T09:34:54.288Z,1587.00
2023-04-18T09:35:54.229Z,1587.00
2023-04-18T09:36:54.199Z,1610.00
2023-04-18T09:37:54.094Z,1633.00
2023-04-18T09:38:56.684Z,1625.00
2023-04-18T09:39:54.019Z,1625.00
2023-04-18T09:40:53.955Z,1574.00
2023-04-18T09:41:53.918Z,1533.00
2023-04-18T09:42:53.851Z,1497.00
2023-04-18T09:43:53.815Z,1426.00
2023-04-18T09:44:55.135Z,1394.00
2023-04-18T09:45:53.791Z,1304.00
2023-04-18T09:46:53.677Z,1114.00
2023-04-18T09:47:53.718Z,975.00
2023-04-18T09:48:53.551Z,820.00
2023-04-18T09:49:53.540Z,651.00
2023-04-18T09:50:53.494Z,595.00
2023-04-18T09:51:53.442Z,516.00
2023-04-18T09:52:53.378Z,495.00
2023-04-18T09:53:53.336Z,499.00
2023-04-18T09:54:53.288Z,499.00
2023-04-18T09:55:54.320Z,498.00
2023-04-18T09:56:53.223Z,494.00
2023-04-18T09:57:53.129Z,445.00
2023-04-18T09:58:53.101Z,401.00
2023-04-18T09:59:53.057Z,409.00
2023-04-18T10:00:53.067Z,400.00
2023-04-18T10:01:52.974Z,409.00
2023-04-18T10:02:52.958Z,443.00
2023-04-18T10:03:53.054Z,454.00
2023-04-18T10:04:52.964Z,498.00
2023-04-18T10:05:52.838Z,518.00
2023-04-18T10:06:52.824Z,501.00
2023-04-18T10:07:52.793Z,504.00
2023-04-18T10:08:52.731Z,504.00
2023-04-18T10:09:52.761Z,505.00
2023-04-18T10:10:52.669Z,505.00
2023-04-18T10:11:52.596Z,511.00
2023-04-18T10:12:52.606Z,504.00
2023-04-18T10:13:52.541Z,481.00
2023-04-18T10:14:52.442Z,491.00
2023-04-18T10:15:52.474Z,479.00
2023-04-18T10:16:52.368Z,483.00
2023-04-18T10:18:03.637Z,502.00
2023-04-18T10:18:53.289Z,484.00
2023-04-18T10:19:52.242Z,485.00
2023-04-18T10:20:52.217Z,505.00
2023-04-18T10:21:52.120Z,510.00
2023-04-18T10:22:52.183Z,511.00
2023-04-18T10:23:52.270Z,530.00
2023-04-18T10:24:52.064Z,523.00
2023-04-18T10:25:51.984Z,560.00
2023-04-18T10:26:51.913Z,551.00
2023-04-18T10:27:51.995Z,528.00
2023-04-18T10:28:51.826Z,525.00
2023-04-18T10:29:51.822Z,522.00
2023-04-18T10:30:51.777Z,527.00
2023-04-18T10:31:51.863Z,539.00
2023-04-18T10:32:51.685Z,555.00
2023-04-18T10:34:03.239Z,544.00
2023-04-18T10:34:52.563Z,544.00
2023-04-18T10:35:51.555Z,544.00
2023-04-18T10:36:51.447Z,531.00
2023-04-18T10:37:51.416Z,502.00
2023-04-18T10:38:51.415Z,422.00
2023-04-18T10:39:51.336Z,450.00
2023-04-18T10:40:51.389Z,487.00
2023-04-18T10:41:51.527Z,523.00
2023-04-18T10:42:51.245Z,529.00
2023-04-18T10:43:51.190Z,544.00
2023-04-18T10:44:51.183Z,564.00
2023-04-18T10:45:51.151Z,580.00
2023-04-18T10:46:51.217Z,589.00
2023-04-18T10:47:51.158Z,592.00
2023-04-18T10:48:51.061Z,602.00
2023-04-18T10:49:51.029Z,616.00
2023-04-18T10:50:51.035Z,623.00
2023-04-18T10:51:50.997Z,623.00
2023-04-18T10:52:51.013Z,625.00
2023-04-18T10:53:50.911Z,632.00
2023-04-18T10:54:50.860Z,635.00
2023-04-18T10:55:50.816Z,641.00
2023-04-18T10:56:50.781Z,637.00
2023-04-18T10:57:50.717Z,637.00
2023-04-18T10:58:50.655Z,649.00
2023-04-18T10:59:50.620Z,649.00
2023-04-18T11:00:50.592Z,654.00
2023-04-18T11:01:50.544Z,659.00
2023-04-18T11:02:50.685Z,706.00
2023-04-18T11:03:50.781Z,777.00
2023-04-18T11:04:50.387Z,793.00
2023-04-18T11:05:50.326Z,839.00
2023-04-18T11:06:50.311Z,872.00
2023-04-18T11:07:50.256Z,843.00
2023-04-18T11:08:50.173Z,813.00
2023-04-18T11:09:50.112Z,778.00
2023-04-18T11:10:50.085Z,753.00
2023-04-18T11:11:50.027Z,745.00
2023-04-18T11:12:49.962Z,814.00
2023-04-18T11:13:49.904Z,809.00
2023-04-18T11:14:50.040Z,816.00
2023-04-18T11:15:49.880Z,763.00
2023-04-18T11:16:49.796Z,714.00
2023-04-18T11:17:49.706Z,658.00
2023-04-18T11:18:49.633Z,631.00
2023-04-18T11:19:49.592Z,619.00
2023-04-18T11:20:49.535Z,607.00
2023-04-18T11:21:49.484Z,578.00
2023-04-18T11:22:49.445Z,547.00
2023-04-18T11:23:49.427Z,527.00
2023-04-18T11:24:49.327Z,520.00
2023-04-18T11:25:49.316Z,523.00
2023-04-18T11:26:49.302Z,528.00
2023-04-18T11:27:49.178Z,501.00
2023-04-18T11:28:49.228Z,517.00
2023-04-18T11:29:49.097Z,553.00
2023-04-18T11:30:49.055Z,593.00
2023-04-18T11:31:49.034Z,630.00
2023-04-18T11:32:49.014Z,660.00
2023-04-18T11:33:48.902Z,735.00
2023-04-18T11:34:48.864Z,771.00
2023-04-18T11:35:48.863Z,863.00
2023-04-18T11:36:48.919Z,940.00
2023-04-18T11:37:48.877Z,1001.00
2023-04-18T11:38:48.898Z,1092.00
2023-04-18T11:39:48.888Z,1150.00
2023-04-18T11:40:48.889Z,1243.00
2023-04-18T11:41:48.886Z,1338.00
2023-04-18T11:42:48.980Z,1420.00
2023-04-18T11:43:48.901Z,1483.00
2023-04-18T11:44:48.901Z,1556.00
2023-04-18T11:45:48.961Z,1613.00
2023-04-18T11:46:48.844Z,1616.00
2023-04-18T11:47:48.845Z,1628.00
2023-04-18T11:48:48.718Z,1667.00
2023-04-18T11:49:48.660Z,1755.00
2023-04-18T11:50:48.606Z,1858.00
2023-04-18T11:51:48.539Z,1919.00
2023-04-18T11:52:48.475Z,1963.00
2023-04-18T11:53:48.417Z,2001.00
2023-04-18T11:54:48.374Z,2040.00
2023-04-18T11:55:48.325Z,2081.00
2023-04-18T11:56:48.323Z,2085.00
2023-04-18T11:57:48.289Z,2124.00
2023-04-18T11:58:48.313Z,2156.00
2023-04-18T11:59:48.281Z,2199.00
2023-04-18T12:00:48.305Z,2219.00
2023-04-18T12:01:48.354Z,2244.00
2023-04-18T12:02:48.380Z,2264.00
2023-04-18T12:03:48.510Z,2269.00
2023-04-18T12:04:48.410Z,2281.00
2023-04-18T12:05:48.587Z,2302.00
2023-04-18T12:06:48.316Z,2309.00
2023-04-18T12:07:48.296Z,2333.00
2023-04-18T12:08:48.277Z,2321.00
2023-04-18T12:09:48.270Z,2346.00
2023-04-18T12:10:48.257Z,2376.00
2023-04-18T12:11:48.228Z,2367.00
2023-04-18T12:12:48.227Z,2369.00
2023-04-18T12:13:48.189Z,2383.00
2023-04-18T12:14:48.247Z,2378.00
2023-04-18T12:15:48.252Z,2382.00
2023-04-18T12:16:48.216Z,2389.00